createdAt,value
2023-04-15T00:00:40.916Z,11.36
2023-04-15T00:03:08.909Z,11.37
2023-04-15T00:05:40.051Z,11.41
2023-04-15T00:08:07.847Z,11.35
2023-04-15T00:10:35.612Z,11.57
2023-04-15T00:13:07.808Z,11.48
2023-04-15T00:15:36.790Z,11.47
2023-04-15T00:18:05.823Z,11.48
2023-04-15T00:20:33.797Z,11.53
2023-04-15T00:23:02.848Z,11.46
2023-04-15T00:25:30.434Z,11.48
2023-04-15T00:27:58.168Z,11.55
2023-04-15T00:30:26.393Z,11.49
2023-04-15T00:32:54.448Z,11.49
2023-04-15T00:35:23.409Z,11.59
2023-04-15T00:37:51.682Z,11.53
2023-04-15T00:40:21.675Z,11.55
2023-04-15T00:42:50.101Z,11.55
2023-04-15T00:45:17.841Z,11.57
2023-04-15T00:47:45.822Z,11.66
2023-04-15T00:50:14.172Z,11.68
2023-04-15T00:52:43.325Z,11.62
2023-04-15T00:55:11.093Z,11.45
2023-04-15T00:57:59.164Z,11.53
2023-04-15T01:00:27.491Z,11.41
2023-04-15T01:02:56.030Z,11.37
2023-04-15T01:05:24.059Z,11.29
2023-04-15T01:07:53.297Z,11.35
2023-04-15T01:10:20.900Z,11.34
2023-04-15T01:12:49.781Z,11.33
2023-04-15T01:15:17.887Z,11.29
2023-04-15T01:17:45.774Z,11.18
2023-04-15T01:20:14.789Z,11.24
2023-04-15T01:22:43.318Z,11.17
2023-04-15T01:25:17.641Z,11.16
2023-04-15T01:27:47.022Z,11.11
2023-04-15T01:30:14.608Z,11.12
2023-04-15T01:32:43.177Z,11.08
2023-04-15T01:35:11.295Z,11.14
2023-04-15T01:37:38.890Z,11.12
2023-04-15T01:40:08.316Z,11.11
2023-04-15T01:42:36.930Z,11.02
2023-04-15T01:45:08.479Z,10.95
2023-04-15T01:47:37.297Z,10.87
2023-04-15T01:50:05.837Z,10.91
2023-04-15T01:52:33.857Z,10.91
2023-04-15T01:55:01.722Z,10.85
2023-04-15T01:57:30.002Z,10.82
2023-04-15T01:59:57.532Z,10.91
2023-04-15T02:02:26.966Z,10.82
2023-04-15T02:04:54.866Z,10.81
2023-04-15T02:07:22.554Z,10.71
2023-04-15T02:09:50.230Z,10.70
2023-04-15T02:12:18.198Z,10.67
2023-04-15T02:14:45.872Z,10.65
2023-04-15T02:17:20.219Z,10.78
2023-04-15T02:19:51.432Z,10.78
2023-04-15T02:22:19.883Z,10.69
2023-04-15T02:24:47.424Z,10.65
2023-04-15T02:27:18.768Z,10.62
2023-04-15T02:29:46.930Z,10.67
2023-04-15T02:32:14.517Z,10.67
2023-04-15T02:34:43.715Z,10.69
2023-04-15T02:37:13.770Z,10.64
2023-04-15T02:39:41.465Z,10.61
2023-04-15T02:42:10.837Z,10.57
2023-04-15T02:44:38.756Z,10.60
2023-04-15T02:47:06.612Z,10.64
2023-04-15T02:49:35.392Z,10.51
2023-04-15T02:52:03.277Z,10.56
2023-04-15T02:54:32.556Z,10.58
2023-04-15T02:57:01.034Z,10.53
2023-04-15T02:59:29.526Z,10.49
2023-04-15T03:01:57.270Z,10.49
2023-04-15T03:04:24.896Z,10.41
2023-04-15T03:06:52.868Z,10.47
2023-04-15T03:09:20.787Z,10.45
2023-04-15T03:11:49.840Z,10.37
2023-04-15T03:14:17.781Z,10.48
2023-04-15T03:16:46.605Z,10.49
2023-04-15T03:19:14.483Z,10.50
2023-04-15T03:21:42.302Z,10.50
2023-04-15T03:24:09.981Z,10.51
2023-04-15T03:26:38.668Z,10.49
2023-04-15T03:29:07.785Z,10.50
2023-04-15T03:31:36.977Z,10.47
2023-04-15T03:34:05.791Z,10.49
2023-04-15T03:36:48.023Z,10.49
2023-04-15T03:39:15.695Z,10.61
2023-04-15T03:41:43.757Z,10.64
2023-04-15T03:44:13.032Z,10.64
2023-04-15T03:46:40.823Z,10.73
2023-04-15T03:49:08.395Z,10.71
2023-04-15T03:51:39.172Z,10.82
2023-04-15T03:54:06.978Z,10.91
2023-04-15T03:56:34.616Z,10.95
2023-04-15T03:59:02.646Z,11.01
2023-04-15T04:01:32.041Z,11.04
2023-04-15T04:03:59.939Z,11.14
2023-04-15T04:06:28.758Z,11.13
2023-04-15T04:08:56.743Z,11.17
2023-04-15T04:11:24.691Z,11.43
2023-04-15T04:13:56.272Z,11.73
2023-04-15T04:16:26.987Z,11.82
2023-04-15T04:18:56.220Z,11.82
2023-04-15T04:21:23.797Z,12.01
2023-04-15T04:23:53.464Z,12.06
2023-04-15T04:26:21.676Z,12.00
2023-04-15T04:28:49.249Z,11.95
2023-04-15T04:31:17.075Z,11.79
2023-04-15T04:33:45.306Z,11.62
2023-04-15T04:36:14.422Z,11.42
2023-04-15T04:38:42.078Z,11.43
2023-04-15T04:41:10.002Z,11.41
2023-04-15T04:43:37.684Z,11.24
2023-04-15T04:46:05.755Z,11.23
2023-04-15T04:48:33.495Z,11.29
2023-04-15T04:51:01.347Z,11.42
2023-04-15T04:53:35.352Z,11.40
2023-04-15T04:56:03.287Z,11.48
2023-04-15T04:58:31.000Z,11.54
2023-04-15T05:01:00.401Z,11.43
2023-04-15T05:03:29.009Z,11.85
2023-04-15T05:05:56.962Z,11.84
2023-04-15T05:08:29.747Z,11.75
2023-04-15T05:10:59.111Z,12.07
2023-04-15T05:13:26.707Z,11.92
2023-04-15T05:15:54.577Z,12.01
2023-04-15T05:18:23.783Z,12.02
2023-04-15T05:20:51.525Z,12.09
2023-04-15T05:23:19.658Z,12.13
2023-04-15T05:25:50.300Z,12.01
2023-04-15T05:28:19.469Z,12.28
2023-04-15T05:30:47.233Z,12.21
2023-04-15T05:33:15.312Z,12.11
2023-04-15T05:35:42.904Z,12.50
2023-04-15T05:38:10.693Z,12.46
2023-04-15T05:40:38.297Z,12.37
2023-04-15T05:43:08.886Z,12.68
2023-04-15T05:45:44.166Z,12.58
2023-04-15T05:48:11.971Z,12.55
2023-04-15T05:50:41.438Z,12.23
2023-04-15T05:53:09.079Z,12.31
2023-04-15T05:55:37.272Z,12.32
2023-04-15T05:58:05.036Z,12.19
2023-04-15T06:00:32.859Z,12.11
2023-04-15T06:03:02.986Z,11.99
2023-04-15T06:05:31.134Z,12.07
2023-04-15T06:07:58.815Z,12.08
2023-04-15T06:10:26.648Z,12.24
2023-04-15T06:12:54.537Z,12.14
2023-04-15T06:15:22.457Z,12.12
2023-04-15T06:17:50.241Z,12.05
2023-04-15T06:20:19.883Z,12.38
2023-04-15T06:22:47.927Z,12.48
2023-04-15T06:25:15.667Z,12.53
2023-04-15T06:27:43.674Z,12.98
2023-04-15T06:30:11.884Z,13.19
2023-04-15T06:32:40.343Z,13.15
2023-04-15T06:35:08.858Z,13.56
2023-04-15T06:37:37.895Z,13.84
2023-04-15T06:40:06.604Z,14.17
2023-04-15T06:42:35.326Z,14.18
2023-04-15T06:45:02.996Z,14.13
2023-04-15T06:47:30.740Z,14.48
2023-04-15T06:49:58.490Z,15.23
2023-04-15T06:52:30.591Z,15.26
2023-04-15T06:55:01.092Z,15.57
2023-04-15T06:57:29.221Z,15.79
2023-04-15T06:59:59.033Z,15.51
2023-04-15T07:02:29.667Z,15.18
2023-04-15T07:04:57.445Z,15.33
2023-04-15T07:07:25.332Z,15.14
2023-04-15T07:09:54.154Z,15.62
2023-04-15T07:12:23.412Z,15.35
2023-04-15T07:14:51.162Z,15.03
2023-04-15T07:17:18.724Z,15.42
2023-04-15T07:19:46.972Z,15.41
2023-04-15T07:22:15.045Z,15.62
2023-04-15T07:24:42.629Z,15.46
2023-04-15T07:27:10.359Z,15.57
2023-04-15T07:29:39.915Z,15.50
2023-04-15T07:32:07.629Z,15.80
2023-04-15T07:34:36.222Z,15.51
2023-04-15T07:37:04.755Z,15.65
2023-04-15T07:39:32.585Z,15.72
2023-04-15T07:42:03.054Z,15.73
2023-04-15T07:44:32.344Z,15.43
2023-04-15T07:47:02.772Z,15.49
2023-04-15T07:49:31.930Z,15.62
2023-04-15T07:51:59.940Z,15.55
2023-04-15T07:54:27.685Z,15.42
2023-04-15T07:56:55.304Z,15.47
2023-04-15T07:59:26.814Z,15.56
2023-04-15T08:01:54.558Z,15.84
2023-04-15T08:04:23.821Z,15.60
2023-04-15T08:06:56.111Z,15.84
2023-04-15T08:09:23.997Z,16.00
2023-04-15T08:11:51.874Z,15.84
2023-04-15T08:14:20.265Z,16.04
2023-04-15T08:16:47.910Z,15.89
2023-04-15T08:19:15.621Z,15.36
2023-04-15T08:21:45.188Z,15.09
2023-04-15T08:24:12.783Z,15.08
2023-04-15T08:26:43.799Z,14.95
2023-04-15T08:29:13.708Z,15.16
2023-04-15T08:31:41.555Z,15.28
2023-04-15T08:34:15.811Z,15.64
2023-04-15T08:36:45.251Z,15.32
2023-04-15T08:39:14.765Z,15.30
2023-04-15T08:41:46.927Z,15.16
2023-04-15T08:44:15.957Z,15.16
2023-04-15T08:46:45.738Z,15.37
2023-04-15T08:49:13.908Z,15.67
2023-04-15T08:51:45.925Z,16.06
2023-04-15T08:54:16.154Z,15.51
2023-04-15T08:56:44.402Z,15.73
2023-04-15T08:59:12.534Z,16.10
2023-04-15T09:01:40.761Z,16.39
2023-04-15T09:04:08.896Z,15.89
2023-04-15T09:06:37.284Z,15.51
2023-04-15T09:09:06.663Z,15.16
2023-04-15T09:11:35.337Z,15.47
2023-04-15T09:14:02.978Z,15.83
2023-04-15T09:16:31.257Z,16.15
2023-04-15T09:18:58.835Z,16.25
2023-04-15T09:21:26.825Z,15.94
2023-04-15T09:23:56.862Z,15.88
2023-04-15T09:26:33.758Z,15.79
2023-04-15T09:29:08.237Z,15.94
2023-04-15T09:31:38.924Z,16.35
2023-04-15T09:34:07.500Z,16.30
2023-04-15T09:36:56.320Z,16.11
2023-04-15T09:39:24.267Z,16.13
2023-04-15T09:42:08.889Z,16.49
2023-04-15T09:44:37.567Z,16.41
2023-04-15T09:47:08.114Z,16.53
2023-04-15T09:49:36.147Z,16.45
2023-04-15T09:52:05.816Z,16.15
2023-04-15T09:54:35.569Z,16.27
2023-04-15T09:57:08.522Z,15.91
2023-04-15T09:59:36.285Z,16.17
2023-04-15T10:02:05.804Z,16.43
2023-04-15T10:04:36.285Z,16.50
2023-04-15T10:07:09.578Z,16.53
2023-04-15T10:09:39.074Z,16.92
2023-04-15T10:12:11.832Z,16.73
2023-04-15T10:14:41.265Z,16.98
2023-04-15T10:17:11.975Z,16.77
2023-04-15T10:19:40.516Z,16.73
2023-04-15T10:22:08.492Z,16.66
2023-04-15T10:24:36.775Z,16.96
2023-04-15T10:27:05.997Z,16.91
2023-04-15T10:29:35.147Z,16.79
2023-04-15T10:32:03.735Z,17.04
2023-04-15T10:34:32.721Z,17.01
2023-04-15T10:37:02.673Z,16.80
2023-04-15T10:39:43.929Z,17.09
2023-04-15T10:42:13.232Z,16.59
2023-04-15T10:44:48.758Z,16.24
2023-04-15T10:47:18.122Z,16.51
2023-04-15T10:49:50.467Z,16.25
2023-04-15T10:52:23.051Z,16.65
2023-04-15T10:54:50.939Z,16.91
2023-04-15T10:57:23.478Z,17.08
2023-04-15T11:00:10.198Z,17.22
2023-04-15T11:02:42.823Z,16.91
2023-04-15T11:05:12.151Z,16.86
2023-04-15T11:07:47.025Z,17.11
2023-04-15T11:10:54.408Z,17.08
2023-04-15T11:13:28.584Z,17.36
2023-04-15T11:15:59.739Z,17.37
2023-04-15T11:18:32.717Z,17.27
2023-04-15T11:21:06.155Z,17.30
2023-04-15T11:23:38.780Z,17.55
2023-04-15T11:26:08.034Z,17.15
2023-04-15T11:28:37.449Z,17.40
2023-04-15T11:31:10.274Z,17.67
2023-04-15T11:33:46.040Z,17.79
2023-04-15T11:36:13.851Z,17.88
2023-04-15T11:38:46.912Z,17.80
2023-04-15T11:41:14.524Z,17.69
2023-04-15T11:43:42.653Z,17.75
2023-04-15T11:46:12.208Z,17.82
2023-04-15T11:48:44.470Z,17.47
2023-04-15T11:51:13.397Z,17.62
2023-04-15T11:53:42.933Z,17.64
2023-04-15T11:56:11.892Z,17.65
2023-04-15T11:58:39.506Z,17.85
2023-04-15T12:01:08.071Z,17.97
2023-04-15T12:03:41.963Z,18.29
2023-04-15T12:06:12.624Z,18.25
2023-04-15T12:09:08.463Z,18.31
2023-04-15T12:11:39.053Z,18.48
2023-04-15T12:14:09.800Z,18.21
2023-04-15T12:16:49.410Z,18.11
2023-04-15T12:19:24.395Z,17.92
2023-04-15T12:21:53.858Z,18.28
2023-04-15T12:24:22.286Z,18.51
2023-04-15T12:26:51.484Z,18.47
2023-04-15T12:29:20.251Z,18.58
2023-04-15T12:31:49.890Z,18.49
2023-04-15T12:34:25.530Z,18.19
2023-04-15T12:36:53.345Z,18.26
2023-04-15T12:39:22.866Z,18.33
2023-04-15T12:41:50.493Z,18.39
2023-04-15T12:44:18.225Z,18.29
2023-04-15T12:46:46.330Z,18.24
2023-04-15T12:49:14.109Z,17.90
2023-04-15T12:51:43.282Z,18.32
2023-04-15T12:54:11.022Z,18.18
2023-04-15T12:56:38.850Z,18.04
2023-04-15T12:59:06.412Z,17.80
2023-04-15T13:01:34.203Z,17.57
2023-04-15T13:04:02.174Z,17.54
2023-04-15T13:06:30.606Z,17.34
2023-04-15T13:08:59.733Z,17.51
2023-04-15T13:11:28.307Z,17.27
2023-04-15T13:13:55.888Z,17.15
2023-04-15T13:16:23.956Z,17.02
2023-04-15T13:18:51.957Z,17.03
2023-04-15T13:21:20.739Z,16.92
2023-04-15T13:23:49.371Z,16.80
2023-04-15T13:26:19.100Z,16.80
2023-04-15T13:28:47.561Z,16.56
2023-04-15T13:31:15.164Z,16.40
2023-04-15T13:33:44.428Z,16.62
2023-04-15T13:36:12.051Z,16.32
2023-04-15T13:38:39.912Z,16.00
2023-04-15T13:41:07.577Z,15.80
2023-04-15T13:43:36.601Z,15.62
2023-04-15T13:46:04.734Z,15.51
2023-04-15T13:48:32.669Z,15.59
2023-04-15T13:51:00.251Z,15.46
2023-04-15T13:53:34.891Z,15.51
2023-04-15T13:56:07.100Z,15.51
2023-04-15T13:58:36.547Z,15.58
2023-04-15T14:01:06.153Z,15.54
2023-04-15T14:03:35.221Z,15.59
2023-04-15T14:06:03.386Z,15.65
2023-04-15T14:08:31.393Z,15.60
2023-04-15T14:10:59.350Z,15.67
2023-04-15T14:13:27.063Z,15.67
2023-04-15T14:15:57.086Z,15.86
2023-04-15T14:18:24.982Z,15.82
2023-04-15T14:20:52.677Z,15.87
2023-04-15T14:23:20.748Z,15.91
2023-04-15T14:25:48.664Z,15.89
2023-04-15T14:28:16.430Z,15.71
2023-04-15T14:30:44.068Z,15.59
2023-04-15T14:33:13.688Z,15.38
2023-04-15T14:35:41.308Z,15.28
2023-04-15T14:38:09.085Z,15.15
2023-04-15T14:40:36.952Z,15.21
2023-04-15T14:43:04.619Z,15.24
2023-04-15T14:45:32.792Z,15.14
2023-04-15T14:48:00.473Z,15.06
2023-04-15T14:50:29.681Z,15.02
2023-04-15T14:52:57.427Z,14.91
2023-04-15T14:55:25.537Z,14.76
2023-04-15T14:57:53.093Z,14.67
2023-04-15T15:00:20.759Z,14.49
2023-04-15T15:02:49.452Z,14.35
2023-04-15T15:05:17.477Z,14.30
2023-04-15T15:07:46.659Z,14.32
2023-04-15T15:10:14.481Z,14.23
2023-04-15T15:12:42.706Z,14.35
2023-04-15T15:15:24.984Z,14.32
2023-04-15T15:17:56.588Z,14.47
2023-04-15T15:20:24.982Z,14.30
2023-04-15T15:22:54.357Z,14.46
2023-04-15T15:25:22.382Z,14.56
2023-04-15T15:27:50.649Z,14.60
2023-04-15T15:30:18.299Z,14.67
2023-04-15T15:32:47.294Z,14.60
2023-04-15T15:35:15.270Z,14.44
2023-04-15T15:37:43.052Z,14.43
2023-04-15T15:40:13.030Z,14.33
2023-04-15T15:42:40.840Z,14.33
2023-04-15T15:45:08.933Z,14.41
2023-04-15T15:47:36.901Z,14.39
2023-04-15T15:50:06.258Z,14.17
2023-04-15T15:52:34.172Z,14.08
2023-04-15T15:55:01.892Z,13.80
2023-04-15T15:57:34.480Z,13.74
2023-04-15T16:02:59.912Z,13.56
2023-04-15T16:05:20.492Z,13.39
2023-04-15T16:07:48.435Z,13.26
2023-04-15T16:10:16.058Z,13.20
2023-04-15T16:12:45.547Z,13.19
2023-04-15T16:15:13.558Z,13.19
2023-04-15T16:17:41.573Z,13.14
2023-04-15T16:20:10.072Z,13.17
2023-04-15T16:22:37.699Z,13.07
2023-04-15T16:25:07.909Z,13.04
2023-04-15T16:27:46.752Z,13.01
2023-04-15T16:30:26.698Z,12.99
2023-04-15T16:32:54.781Z,12.95
2023-04-15T16:35:22.395Z,12.82
2023-04-15T16:37:49.946Z,12.70
2023-04-15T16:40:17.862Z,12.55
2023-04-15T16:42:45.572Z,12.39
2023-04-15T16:45:13.149Z,12.28
2023-04-15T16:47:47.338Z,12.10
2023-04-15T16:50:15.139Z,11.97
2023-04-15T16:52:43.173Z,11.79
2023-04-15T16:55:10.776Z,11.72
2023-04-15T16:57:53.186Z,11.59
2023-04-15T17:00:26.499Z,11.55
2023-04-15T17:02:56.529Z,11.41
2023-04-15T17:05:27.080Z,11.32
2023-04-15T17:07:54.964Z,11.25
2023-04-15T17:10:23.152Z,11.15
2023-04-15T17:12:51.354Z,11.03
2023-04-15T17:15:19.369Z,10.92
2023-04-15T17:17:46.994Z,10.87
2023-04-15T17:20:16.204Z,10.78
2023-04-15T17:22:43.934Z,10.74
2023-04-15T17:25:11.540Z,10.65
2023-04-15T17:27:39.395Z,10.61
2023-04-15T17:30:08.440Z,10.59
2023-04-15T17:32:40.002Z,10.56
2023-04-15T17:35:08.692Z,10.54
2023-04-15T17:37:38.944Z,10.51
2023-04-15T17:40:08.756Z,10.50
2023-04-15T17:42:36.888Z,10.48
2023-04-15T17:45:05.480Z,10.43
2023-04-15T17:47:36.320Z,10.38
2023-04-15T17:50:05.045Z,10.42
2023-04-15T17:52:33.196Z,10.40
2023-04-15T17:55:02.368Z,10.37
2023-04-15T17:57:30.148Z,10.33
2023-04-15T17:59:57.816Z,10.33
2023-04-15T18:02:25.837Z,10.30
2023-04-15T18:04:53.817Z,10.17
2023-04-15T18:07:21.779Z,10.27
2023-04-15T18:09:49.533Z,10.24
2023-04-15T18:12:18.735Z,10.26
2023-04-15T18:14:46.638Z,10.27
2023-04-15T18:17:14.548Z,10.25
2023-04-15T18:19:42.516Z,10.18
2023-04-15T18:22:10.167Z,10.27
2023-04-15T18:24:38.020Z,10.27
2023-04-15T18:27:05.808Z,10.25
2023-04-15T18:29:35.241Z,10.23
2023-04-15T18:32:03.215Z,10.16
2023-04-15T18:34:31.228Z,10.18
2023-04-15T18:36:59.115Z,10.12
2023-04-15T18:39:27.220Z,10.16
2023-04-15T18:41:55.857Z,10.13
2023-04-15T18:44:23.444Z,10.14
2023-04-15T18:46:52.612Z,10.07
2023-04-15T18:49:20.254Z,10.02
2023-04-15T18:51:50.267Z,10.03
2023-04-15T18:54:17.985Z,9.98
2023-04-15T18:56:46.186Z,9.94
2023-04-15T18:59:29.782Z,9.94
2023-04-15T19:02:00.464Z,9.91
2023-04-15T19:04:28.334Z,9.91
2023-04-15T19:06:56.311Z,9.99
2023-04-15T19:09:24.728Z,9.93
2023-04-15T19:11:52.527Z,9.96
2023-04-15T19:14:20.070Z,9.94
2023-04-15T19:16:48.111Z,9.92
2023-04-15T19:19:17.105Z,9.88
2023-04-15T19:21:44.866Z,9.89
2023-04-15T19:24:14.092Z,9.84
2023-04-15T19:26:41.838Z,9.75
2023-04-15T19:29:09.544Z,9.82
2023-04-15T19:31:37.468Z,9.79
2023-04-15T19:34:05.166Z,9.75
2023-04-15T19:36:34.256Z,9.70
2023-04-15T19:39:02.733Z,9.82
2023-04-15T19:41:31.822Z,9.81
2023-04-15T19:43:59.886Z,9.81
2023-04-15T19:46:29.226Z,9.79
2023-04-15T19:49:00.010Z,9.66
2023-04-15T19:51:28.330Z,9.70
2023-04-15T19:53:57.923Z,9.53
2023-04-15T19:56:25.490Z,9.61
2023-04-15T19:58:53.288Z,9.47
2023-04-15T20:01:22.001Z,9.44
2023-04-15T20:03:49.864Z,9.45
2023-04-15T20:06:17.877Z,9.39
2023-04-15T20:08:46.333Z,9.30
2023-04-15T20:11:15.402Z,9.32
2023-04-15T20:13:43.204Z,9.30
2023-04-15T20:16:11.363Z,9.33
2023-04-15T20:18:39.831Z,9.33
2023-04-15T20:21:07.545Z,9.27
2023-04-15T20:23:35.631Z,9.31
2023-04-15T20:26:03.197Z,9.25
2023-04-15T20:28:32.613Z,9.21
2023-04-15T20:31:01.236Z,9.10
2023-04-15T20:33:30.308Z,9.17
2023-04-15T20:35:58.048Z,9.06
2023-04-15T20:38:25.947Z,9.08
2023-04-15T20:40:53.487Z,9.05
2023-04-15T20:43:22.281Z,8.96
2023-04-15T20:45:51.602Z,9.07
2023-04-15T20:48:19.451Z,8.99
2023-04-15T20:50:47.105Z,9.02
2023-04-15T20:53:14.809Z,8.89
2023-04-15T20:55:42.652Z,8.80
2023-04-15T20:58:10.789Z,8.85
2023-04-15T21:00:38.568Z,8.68
2023-04-15T21:03:07.804Z,8.68
2023-04-15T21:05:35.942Z,8.78
2023-04-15T21:08:04.095Z,8.73
2023-04-15T21:10:33.633Z,8.75
2023-04-15T21:13:01.439Z,8.62
2023-04-15T21:15:29.232Z,8.50
2023-04-15T21:17:57.114Z,8.70
2023-04-15T21:20:26.344Z,8.73
2023-04-15T21:22:54.061Z,8.86
2023-04-15T21:25:21.811Z,8.93
2023-04-15T21:27:49.824Z,8.99
2023-04-15T21:30:17.622Z,9.01
2023-04-15T21:32:45.747Z,8.98
2023-04-15T21:35:13.604Z,9.00
2023-04-15T21:37:42.768Z,8.99
2023-04-15T21:40:10.686Z,9.01
2023-04-15T21:42:39.257Z,9.07
2023-04-15T21:45:07.755Z,9.03
2023-04-15T21:48:04.594Z,9.10
2023-04-15T21:50:23.183Z,9.09
2023-04-15T21:52:52.329Z,9.09
2023-04-15T21:55:21.257Z,9.06
2023-04-15T21:57:49.200Z,9.01
2023-04-15T22:00:17.101Z,9.08
2023-04-15T22:02:46.115Z,9.18
2023-04-15T22:05:14.050Z,9.21
2023-04-15T22:07:41.913Z,9.21
2023-04-15T22:10:11.353Z,9.14
2023-04-15T22:12:40.706Z,9.08
2023-04-15T22:15:09.076Z,9.15
2023-04-15T22:17:37.271Z,9.18
2023-04-15T22:20:06.098Z,9.22
2023-04-15T22:22:43.971Z,9.29
2023-04-15T22:25:14.514Z,9.24
2023-04-15T22:27:43.329Z,9.28
2023-04-15T22:30:12.222Z,9.22
2023-04-15T22:32:40.228Z,9.28
2023-04-15T22:35:08.797Z,9.27
2023-04-15T22:37:36.490Z,9.26
2023-04-15T22:40:05.179Z,9.25
2023-04-15T22:42:34.509Z,9.25
2023-04-15T22:45:02.058Z,9.20
2023-04-15T22:47:30.210Z,9.28
2023-04-15T22:49:57.825Z,9.30
2023-04-15T22:52:30.601Z,9.46
2023-04-15T22:54:59.217Z,9.41
2023-04-15T22:57:27.782Z,9.48
2023-04-15T22:59:56.775Z,9.51
2023-04-15T23:02:25.047Z,9.55
2023-04-15T23:04:53.149Z,9.50
2023-04-15T23:07:20.872Z,9.56
2023-04-15T23:09:48.707Z,9.55
2023-04-15T23:12:16.427Z,9.54
2023-04-15T23:14:44.022Z,9.56
2023-04-15T23:17:13.494Z,9.57
2023-04-15T23:19:41.018Z,9.56
2023-04-15T23:22:08.703Z,9.58
2023-04-15T23:24:37.181Z,9.50
2023-04-15T23:27:04.702Z,9.52
2023-04-15T23:29:32.504Z,9.49
2023-04-15T23:32:00.617Z,9.45
2023-04-15T23:34:29.773Z,9.42
2023-04-15T23:36:57.305Z,9.36
2023-04-15T23:39:25.190Z,9.37
2023-04-15T23:41:53.227Z,9.32
2023-04-15T23:44:21.112Z,9.27
2023-04-15T23:46:49.299Z,9.32
2023-04-15T23:49:18.947Z,9.31
2023-04-15T23:51:49.372Z,9.33
2023-04-15T23:54:17.109Z,9.34
2023-04-15T23:56:44.678Z,9.35
2023-04-15T23:59:12.834Z,9.41
